Time;durP1;ratioP1;P1;durP2;ratioP2;P2;SDS_P1;SDS_P2;PMS_P1;PMS_P2;Temp;Humidity;BMP_temperature;BMP_pressure;BME280_temperature;BME280_humidity;BME280_pressure;Samples;Min_cycle;Max_cycle;Signal;HPM_P1;HPM_P2
2022/05/12 00:02:00;;;;;;;12.85;1.88;;;;;;;11.57;92.90;101281.16;5093678;28;20024;-41
2022/05/12 00:04:26;;;;;;;15.40;2.17;;;;;;;11.58;93.47;101287.94;5093613;28;20027;-41
2022/05/12 00:06:52;;;;;;;11.38;1.80;;;;;;;11.48;93.42;101287.41;5093703;28;20197;-40
2022/05/12 00:09:18;;;;;;;11.05;1.95;;;;;;;11.56;92.60;101292.47;5093446;28;20483;-46
2022/05/12 00:11:43;;;;;;;16.50;1.90;;;;;;;11.54;92.95;101299.63;5093860;28;20047;-40
2022/05/12 00:14:09;;;;;;;11.35;1.98;;;;;;;11.54;92.42;101299.63;5093801;28;20031;-40
2022/05/12 00:16:34;;;;;;;14.75;2.28;;;;;;;11.66;92.43;101303.38;5092000;28;20028;-40
2022/05/12 00:19:00;;;;;;;10.13;2.05;;;;;;;11.55;92.44;101303.03;5093470;28;20077;-40
2022/05/12 00:21:25;;;;;;;11.52;2.15;;;;;;;11.59;92.42;101309.44;5093154;28;20031;-40
2022/05/12 00:23:56;;;;;;;10.50;2.00;;;;;;;11.54;92.58;101315.16;5093374;28;20021;-40
2022/05/12 00:26:26;;;;;;;11.40;1.83;;;;;;;11.45;93.25;101319.63;5093170;28;20048;-40
2022/05/12 00:28:52;;;;;;;13.00;2.10;;;;;;;11.46;92.87;101325.59;5091867;28;20031;-40
2022/05/12 00:31:17;;;;;;;13.35;2.17;;;;;;;11.58;93.02;101321.56;5093390;28;20020;-40
2022/05/12 00:33:42;;;;;;;12.98;2.50;;;;;;;11.60;92.40;101337.75;5093272;28;20016;-41
2022/05/12 00:36:07;;;;;;;11.35;2.53;;;;;;;11.49;91.67;101333.81;5093352;28;20038;-40
2022/05/12 00:38:33;;;;;;;14.05;2.30;;;;;;;11.31;92.74;101333.38;5093266;28;20041;-40
2022/05/12 00:40:58;;;;;;;11.38;2.10;;;;;;;11.34;92.94;101343.38;5093576;28;20368;-40
2022/05/12 00:43:33;;;;;;;10.00;2.15;;;;;;;11.37;92.61;101337.84;5093000;28;20020;-39
2022/05/12 00:45:58;;;;;;;10.60;2.17;;;;;;;11.27;92.68;101343.25;5093235;28;20110;-39
2022/05/12 00:48:23;;;;;;;14.20;2.10;;;;;;;11.29;92.54;101346.47;5092936;28;20471;-39
2022/05/12 00:50:49;;;;;;;10.13;1.95;;;;;;;11.37;93.08;101349.97;5093510;28;20035;-39
2022/05/12 00:53:15;;;;;;;12.60;2.50;;;;;;;11.36;92.60;101343.97;5093893;28;20024;-40
2022/05/12 00:55:43;;;;;;;9.40;2.33;;;;;;;11.32;92.73;101350.50;5096788;28;20036;-40
2022/05/12 00:58:12;;;;;;;11.85;2.10;;;;;;;11.29;92.51;101351.66;5096431;28;20062;-40
2022/05/12 01:00:38;;;;;;;10.63;2.08;;;;;;;11.34;93.13;101351.13;5096424;28;20028;-41
2022/05/12 01:03:09;;;;;;;12.52;2.45;;;;;;;11.35;92.51;101360.50;5096653;28;20482;-41
2022/05/12 01:05:34;;;;;;;8.68;2.88;;;;;;;11.19;92.48;101353.72;5096605;28;20027;-40
2022/05/12 01:08:00;;;;;;;13.35;2.65;;;;;;;11.23;92.83;101356.75;5096833;28;20028;-42
2022/05/12 01:10:27;;;;;;;14.15;2.67;;;;;;;11.28;92.66;101360.41;5096435;28;20024;-39
2022/05/12 01:12:52;;;;;;;16.42;2.83;;;;;;;11.34;92.34;101360.69;5096264;28;20390;-40
2022/05/12 01:15:21;;;;;;;11.48;2.50;;;;;;;11.29;92.38;101364.59;5094953;28;20016;-39
2022/05/12 01:17:46;;;;;;;13.77;2.83;;;;;;;11.25;93.45;101365.13;5096245;28;20382;-39
2022/05/12 01:20:13;;;;;;;13.35;2.80;;;;;;;11.07;93.91;101368.03;5096015;28;20020;-40
2022/05/12 01:22:56;;;;;;;14.02;2.88;;;;;;;11.09;93.86;101371.25;5095997;28;20053;-41
2022/05/12 01:25:25;;;;;;;12.07;2.67;;;;;;;11.16;94.31;101373.94;5096121;28;20429;-40
2022/05/12 01:27:51;;;;;;;14.02;3.10;;;;;;;11.16;93.48;101369.56;5095842;28;20024;-40
2022/05/12 01:30:20;;;;;;;12.80;2.70;;;;;;;11.20;93.84;101372.63;5095858;28;20038;-39
2022/05/12 01:32:48;;;;;;;14.25;2.80;;;;;;;11.25;94.71;101380.66;5096376;28;20028;-39
2022/05/12 01:35:17;;;;;;;17.20;3.13;;;;;;;11.24;93.76;101385.00;5096013;28;20016;-40
2022/05/12 01:37:45;;;;;;;17.58;2.78;;;;;;;11.18;94.58;101377.16;5095645;28;20028;-39
2022/05/12 01:40:14;;;;;;;11.75;2.78;;;;;;;11.28;94.18;101385.47;5095916;28;20024;-41
2022/05/12 01:42:39;;;;;;;12.75;2.90;;;;;;;11.27;93.80;101382.06;5096209;28;20024;-39
2022/05/12 01:45:07;;;;;;;12.90;2.60;;;;;;;11.27;94.27;101387.25;5095871;28;20375;-40
2022/05/12 01:47:34;;;;;;;18.85;2.70;;;;;;;11.37;94.28;101392.19;5095561;28;20024;-40
2022/05/12 01:49:59;;;;;;;13.90;2.47;;;;;;;11.32;93.07;101385.91;5095393;28;20382;-40
2022/05/12 01:52:25;;;;;;;14.57;2.38;;;;;;;11.17;93.96;101384.13;5095945;28;20030;-48
2022/05/12 01:54:50;;;;;;;16.88;2.40;;;;;;;11.18;94.53;101390.88;5095414;28;20445;-40
2022/05/12 01:57:16;;;;;;;10.77;2.67;;;;;;;11.16;94.39;101381.69;5094294;28;20059;-40
2022/05/12 01:59:41;;;;;;;15.57;2.90;;;;;;;11.22;94.88;101384.41;5095460;28;20020;-39
2022/05/12 02:02:06;;;;;;;7.85;2.33;;;;;;;11.16;94.02;101386.88;5095167;28;20442;-40
2022/05/12 02:04:31;;;;;;;16.20;2.50;;;;;;;11.13;95.25;101385.44;5094822;28;20073;-40
2022/05/12 02:06:57;;;;;;;15.80;2.95;;;;;;;11.17;94.62;101394.47;5095175;28;20104;-39
2022/05/12 02:09:22;;;;;;;11.57;2.67;;;;;;;11.14;95.42;101400.00;5095296;28;20375;-40
2022/05/12 02:11:47;;;;;;;12.68;3.08;;;;;;;11.14;95.23;101404.38;5093850;28;20031;-39
2022/05/12 02:14:14;;;;;;;11.65;3.13;;;;;;;11.25;96.15;101411.72;5093925;28;20062;-40
2022/05/12 02:16:39;;;;;;;14.48;3.13;;;;;;;11.18;95.53;101419.34;5095232;28;20028;-40
2022/05/12 02:19:06;;;;;;;14.18;3.47;;;;;;;11.28;95.85;101422.50;5094877;28;20387;-40
2022/05/12 02:21:32;;;;;;;14.50;2.88;;;;;;;11.18;94.80;101418.53;5095176;28;20485;-40
2022/05/12 02:23:59;;;;;;;13.05;3.53;;;;;;;11.13;96.10;101421.63;5094709;28;20024;-40
2022/05/12 02:26:25;;;;;;;15.30;3.70;;;;;;;11.23;95.90;101429.97;5094594;28;20047;-40
2022/05/12 02:28:50;;;;;;;13.70;3.97;;;;;;;11.23;96.23;101434.34;5095302;28;20027;-40
2022/05/12 02:31:15;;;;;;;14.40;4.05;;;;;;;11.21;95.45;101446.66;5093678;28;20471;-40
2022/05/12 02:33:41;;;;;;;16.90;4.30;;;;;;;11.23;95.30;101442.13;5094900;28;20103;-40
2022/05/12 02:36:06;;;;;;;14.40;3.92;;;;;;;11.26;96.02;101452.91;5095061;28;20024;-39
2022/05/12 02:38:31;;;;;;;12.45;5.05;;;;;;;11.29;95.68;101455.16;5095028;28;20028;-40
2022/05/12 02:40:57;;;;;;;11.43;4.40;;;;;;;11.23;95.73;101461.03;5094538;28;20493;-41
2022/05/12 02:43:25;;;;;;;13.18;3.88;;;;;;;11.33;95.61;101447.84;5094789;28;20065;-40
2022/05/12 02:45:54;;;;;;;10.25;3.95;;;;;;;11.12;95.59;101458.03;5094659;28;20477;-40
2022/05/12 02:48:22;;;;;;;10.30;3.90;;;;;;;11.24;96.52;101457.44;5094622;28;20429;-40
2022/05/12 02:50:48;;;;;;;11.25;4.32;;;;;;;11.12;96.00;101461.44;5094358;28;20085;-40
2022/05/12 02:53:13;;;;;;;11.70;4.72;;;;;;;11.07;96.06;101459.34;5094309;28;20024;-39
2022/05/12 02:55:39;;;;;;;9.70;4.13;;;;;;;11.20;95.49;101461.38;5094714;28;20413;-40
2022/05/12 02:58:05;;;;;;;11.57;5.18;;;;;;;11.20;95.21;101471.72;5094126;28;20031;-39
2022/05/12 03:00:31;;;;;;;12.88;5.25;;;;;;;11.15;96.31;101471.44;5094762;28;20035;-39
2022/05/12 03:02:56;;;;;;;16.45;5.85;;;;;;;11.24;96.01;101482.53;5094329;28;20030;-40
2022/05/12 03:05:22;;;;;;;14.75;6.03;;;;;;;11.19;95.68;101480.47;5094066;28;20028;-44
2022/05/12 03:07:47;;;;;;;11.32;5.95;;;;;;;11.18;95.73;101481.44;5094038;28;20074;-39
2022/05/12 03:10:13;;;;;;;13.32;6.40;;;;;;;11.17;96.06;101476.44;5094206;28;20016;-40
2022/05/12 03:12:38;;;;;;;15.45;6.30;;;;;;;11.17;95.67;101482.41;5094279;28;20074;-41
2022/05/12 03:15:06;;;;;;;16.45;7.03;;;;;;;11.16;95.58;101480.78;5094239;28;20348;-41
2022/05/12 03:17:31;;;;;;;12.38;6.72;;;;;;;11.19;95.65;101485.66;5093158;28;20027;-52
2022/05/12 03:19:56;;;;;;;16.25;7.28;;;;;;;11.24;95.52;101492.88;5094066;28;20028;-40
2022/05/12 03:22:22;;;;;;;16.05;7.47;;;;;;;11.11;95.57;101493.47;5093718;28;20035;-40
2022/05/12 03:24:47;;;;;;;14.68;7.20;;;;;;;11.17;95.99;101486.78;5092419;28;20036;-40
2022/05/12 03:27:13;;;;;;;17.02;7.15;;;;;;;11.14;95.41;101490.53;5093598;28;20055;-40
2022/05/12 03:29:38;;;;;;;17.58;6.80;;;;;;;11.14;95.73;101490.53;5093951;28;20036;-40
2022/05/12 03:32:09;;;;;;;22.00;7.20;;;;;;;11.23;95.66;101501.63;5093704;28;20077;-40
2022/05/12 03:34:34;;;;;;;14.35;7.00;;;;;;;11.07;95.26;101481.84;5094608;28;20447;-40
2022/05/12 03:36:59;;;;;;;15.07;7.88;;;;;;;11.23;95.15;101504.22;5092985;28;20038;-41
2022/05/12 03:39:25;;;;;;;12.10;7.07;;;;;;;11.07;96.33;101507.69;5093373;28;20367;-41
2022/05/12 03:41:50;;;;;;;13.20;7.32;;;;;;;11.11;95.93;101514.16;5093689;28;20028;-41
2022/05/12 03:46:59;;;;;;;13.20;7.53;;;;;;;11.18;95.57;101522.03;5092891;28;20074;-41
2022/05/12 03:49:24;;;;;;;13.55;6.95;;;;;;;11.16;94.66;101532.53;5093332;28;20016;-41
2022/05/12 03:51:50;;;;;;;21.30;7.45;;;;;;;11.15;95.15;101536.09;5093558;28;20089;-41
2022/05/12 03:54:15;;;;;;;19.10;7.30;;;;;;;11.32;94.59;101531.63;5093626;28;20483;-40
2022/05/12 03:56:42;;;;;;;14.27;7.05;;;;;;;11.27;94.08;101532.13;5092111;28;20054;-41
2022/05/12 03:59:08;;;;;;;17.20;7.22;;;;;;;11.31;94.58;101535.19;5093833;28;20020;-40
2022/05/12 04:01:33;;;;;;;15.52;7.57;;;;;;;11.27;93.65;101528.75;5093676;28;20098;-41
2022/05/12 04:03:59;;;;;;;13.13;6.95;;;;;;;11.27;94.33;101529.53;5092243;28;20020;-40
2022/05/12 04:06:24;;;;;;;17.08;6.97;;;;;;;11.32;93.74;101530.81;5093875;28;20027;-40
2022/05/12 04:08:49;;;;;;;14.15;7.00;;;;;;;11.26;93.46;101534.91;5093279;28;20016;-40
2022/05/12 04:11:15;;;;;;;15.93;7.10;;;;;;;11.22;94.22;101541.38;5093370;28;20032;-40
2022/05/12 04:13:41;;;;;;;17.65;7.10;;;;;;;11.26;94.10;101550.44;5093247;28;20051;-40
2022/05/12 04:16:06;;;;;;;14.40;6.65;;;;;;;11.16;93.92;101542.06;5093534;28;20043;-39
2022/05/12 04:18:31;;;;;;;15.50;6.85;;;;;;;11.21;95.05;101544.97;5093380;28;20016;-39
2022/05/12 04:20:57;;;;;;;16.95;7.22;;;;;;;11.26;94.45;101553.03;5093254;28;20095;-40
2022/05/12 04:23:22;;;;;;;17.60;7.53;;;;;;;11.33;93.74;101553.13;5093153;28;20062;-40
2022/05/12 04:25:47;;;;;;;15.82;6.97;;;;;;;11.23;93.94;101555.94;5093016;28;20135;-40
2022/05/12 04:28:13;;;;;;;18.83;6.90;;;;;;;11.37;93.43;101569.94;5095231;28;20016;-40
2022/05/12 04:30:38;;;;;;;17.70;7.25;;;;;;;11.26;93.53;101540.09;5097326;28;20366;-40
2022/05/12 04:35:55;;;;;;;12.90;6.78;;;;;;;11.36;93.65;101570.88;5080851;28;20040;-40
2022/05/12 04:38:20;;;;;;;16.63;7.38;;;;;;;11.35;93.90;101571.88;5097079;28;20036;-40
2022/05/12 04:40:48;;;;;;;15.30;7.22;;;;;;;11.47;93.91;101586.81;5097066;28;20489;-41
2022/05/12 04:43:13;;;;;;;17.33;6.97;;;;;;;11.43;93.21;101590.75;5097041;28;20061;-41
2022/05/12 04:45:40;;;;;;;18.98;7.28;;;;;;;11.49;92.89;101592.63;5097280;28;20521;-42
2022/05/12 04:48:06;;;;;;;14.10;6.53;;;;;;;11.47;92.74;101596.38;5095365;28;20024;-40
2022/05/12 04:50:35;;;;;;;13.75;6.45;;;;;;;11.55;93.45;101592.94;5096816;28;20024;-40
2022/05/12 04:53:01;;;;;;;14.75;6.70;;;;;;;11.69;93.26;101605.13;5096866;28;20032;-40
2022/05/12 04:55:27;;;;;;;17.33;6.47;;;;;;;11.55;92.85;101605.88;5096530;28;20418;-39
2022/05/12 04:57:55;;;;;;;16.00;6.63;;;;;;;11.52;92.62;101605.22;5096508;28;20024;-39
2022/05/12 05:00:24;;;;;;;15.57;6.75;;;;;;;11.41;93.05;101581.53;5096706;28;20035;-39
2022/05/12 05:02:50;;;;;;;13.90;6.53;;;;;;;11.67;92.85;101592.34;5096362;28;20032;-39
2022/05/12 05:05:15;;;;;;;16.48;6.60;;;;;;;11.77;92.28;101605.06;5096922;28;20356;-39
2022/05/12 05:07:40;;;;;;;14.88;6.70;;;;;;;11.71;92.64;101606.56;5096840;28;20115;-38
2022/05/12 05:10:07;;;;;;;16.73;6.47;;;;;;;11.72;92.29;101609.94;5094940;28;20039;-38
2022/05/12 05:12:32;;;;;;;13.88;6.20;;;;;;;11.91;92.00;101614.69;5095851;28;20455;-40
2022/05/12 05:14:58;;;;;;;14.77;5.80;;;;;;;11.85;92.05;101615.34;5077082;28;20024;-42
2022/05/12 05:17:24;;;;;;;14.30;5.97;;;;;;;11.99;91.47;101613.78;5093746;28;20122;-41
2022/05/12 05:19:51;;;;;;;14.13;5.80;;;;;;;12.09;90.74;101623.91;5093247;28;20058;-40
2022/05/12 05:22:17;;;;;;;14.27;6.47;;;;;;;12.30;89.55;101623.22;5095344;28;20020;-40
2022/05/12 05:24:42;;;;;;;13.98;6.10;;;;;;;12.34;89.28;101630.47;5094995;28;20030;-40
2022/05/12 05:27:08;;;;;;;16.20;7.03;;;;;;;12.29;89.54;101632.00;5095601;28;20094;-41
2022/05/12 05:29:33;;;;;;;15.23;6.97;;;;;;;12.36;88.59;101631.09;5095691;28;20052;-39
2022/05/12 05:31:59;;;;;;;13.13;6.00;;;;;;;12.30;89.46;101625.81;5096282;28;20417;-38
2022/05/12 05:34:25;;;;;;;14.35;5.90;;;;;;;12.41;89.35;101622.78;5094516;28;20032;-41
2022/05/12 05:36:51;;;;;;;13.57;5.82;;;;;;;12.25;89.49;101641.09;5094564;28;20501;-45
2022/05/12 05:39:26;;;;;;;17.42;5.75;;;;;;;12.33;90.21;101641.81;5094902;28;20093;-42
2022/05/12 05:41:57;;;;;;;13.75;5.15;;;;;;;12.44;89.64;101643.16;5093974;28;20031;-40
2022/05/12 05:44:22;;;;;;;11.95;4.45;;;;;;;12.57;87.58;101642.53;5093960;28;20042;-40
2022/05/12 05:46:47;;;;;;;12.38;4.50;;;;;;;12.77;87.13;101651.38;5095161;28;20027;-40
2022/05/12 05:49:14;;;;;;;14.38;4.95;;;;;;;13.60;85.14;101659.72;5095145;28;20103;-47
2022/05/12 05:54:24;;;;;;;10.98;3.78;;;;;;;23.56;47.35;101670.16;5095941;28;20535;-40
2022/05/12 05:56:49;;;;;;;10.75;3.10;;;;;;;24.59;44.22;101669.75;5095430;28;20099;-41
2022/05/12 05:59:14;;;;;;;12.23;3.25;;;;;;;24.52;43.00;101674.50;5093744;28;20032;-41
2022/05/12 06:01:40;;;;;;;10.15;3.00;;;;;;;25.45;41.33;101676.25;5095444;28;20024;-40
2022/05/12 06:04:05;;;;;;;8.35;2.90;;;;;;;25.47;40.90;101687.38;5094853;28;20027;-40
2022/05/12 06:06:31;;;;;;;10.70;3.05;;;;;;;24.98;42.42;101690.47;5095210;28;20046;-40
2022/05/12 06:08:57;;;;;;;10.82;2.95;;;;;;;25.49;40.01;101695.84;5095043;28;20058;-40
2022/05/12 06:11:22;;;;;;;16.20;2.95;;;;;;;25.95;39.33;101693.19;5094846;28;20059;-41
2022/05/12 06:13:48;;;;;;;10.07;2.70;;;;;;;26.78;38.51;101695.25;5094731;28;20038;-41
2022/05/12 06:16:14;;;;;;;9.55;2.88;;;;;;;25.69;39.50;101710.13;5094606;28;20303;-41
2022/05/12 06:18:41;;;;;;;8.63;2.63;;;;;;;25.96;38.65;101701.91;5094639;28;20482;-41
2022/05/12 06:21:09;;;;;;;7.88;2.45;;;;;;;26.86;37.22;101704.50;5095037;28;20543;-41
2022/05/12 06:23:35;;;;;;;8.93;2.65;;;;;;;27.19;37.37;101710.19;5095186;28;20032;-41
2022/05/12 06:26:00;;;;;;;7.60;2.90;;;;;;;27.43;34.91;101710.25;5094525;28;20062;-41
2022/05/12 06:28:25;;;;;;;10.10;2.47;;;;;;;26.96;36.70;101720.38;5094800;28;20105;-41
2022/05/12 06:30:50;;;;;;;11.30;2.67;;;;;;;26.86;36.02;101723.06;5094488;28;20085;-41
2022/05/12 06:33:18;;;;;;;8.43;2.60;;;;;;;27.75;35.69;101722.97;5094746;28;20016;-41
2022/05/12 06:35:43;;;;;;;8.50;2.47;;;;;;;26.74;35.71;101720.75;5094667;28;20028;-41
2022/05/12 06:38:10;;;;;;;8.27;2.47;;;;;;;26.49;37.34;101724.25;5094475;28;20524;-41
2022/05/12 06:40:36;;;;;;;10.48;2.55;;;;;;;27.27;35.63;101733.44;5095136;28;20042;-41
2022/05/12 06:43:05;;;;;;;13.95;2.83;;;;;;;27.15;35.32;101730.31;5094562;28;20417;-40
2022/05/12 06:45:31;;;;;;;13.30;2.67;;;;;;;25.81;38.84;101737.13;5094349;28;20042;-40
2022/05/12 06:47:56;;;;;;;11.75;2.42;;;;;;;26.88;37.44;101739.50;5094379;28;20032;-40
2022/05/12 06:50:29;;;;;;;10.10;2.70;;;;;;;26.47;36.74;101750.25;5094414;28;20032;-41
2022/05/12 06:52:56;;;;;;;8.98;2.63;;;;;;;27.16;35.87;101747.84;5094114;28;20035;-40
2022/05/12 06:55:22;;;;;;;7.68;2.47;;;;;;;27.56;34.79;101749.41;5094032;28;20034;-40
2022/05/12 06:57:47;;;;;;;8.55;2.40;;;;;;;26.34;36.17;101743.66;5093458;28;20024;-41
2022/05/12 07:00:16;;;;;;;9.38;2.63;;;;;;;27.13;34.96;101749.19;5094058;28;20108;-40
2022/05/12 07:02:42;;;;;;;7.90;2.20;;;;;;;26.20;35.30;101758.53;5093714;28;20039;-40
2022/05/12 07:05:08;;;;;;;7.15;2.10;;;;;;;25.08;38.56;101759.22;5093737;28;20161;-42
2022/05/12 07:07:35;;;;;;;15.23;3.00;;;;;;;27.00;34.95;101755.88;5092754;28;20027;-40
2022/05/12 07:10:00;;;;;;;7.78;2.55;;;;;;;27.03;35.05;101770.44;5092813;28;20498;-39
2022/05/12 07:12:26;;;;;;;10.18;2.50;;;;;;;25.95;37.41;101772.63;5092811;28;20108;-40
2022/05/12 07:14:52;;;;;;;5.13;2.20;;;;;;;26.11;37.66;101765.44;5091536;28;20077;-41
2022/05/12 07:17:19;;;;;;;8.18;2.65;;;;;;;25.59;37.75;101767.28;5092007;28;20032;-41
2022/05/12 07:19:44;;;;;;;11.15;2.97;;;;;;;25.20;37.94;101761.66;5092958;28;20028;-40
2022/05/12 07:27:37;;;;;;;7.90;2.50;;;;;;;20.69;48.99;101779.13;5093586;28;20449;-40
2022/05/12 07:30:03;;;;;;;6.82;2.22;;;;;;;20.07;51.03;101789.22;5093616;28;20020;-41
2022/05/12 07:32:29;;;;;;;6.63;2.38;;;;;;;19.79;50.79;101787.19;5094006;28;20039;-42
2022/05/12 07:34:54;;;;;;;10.52;2.67;;;;;;;19.73;52.34;101777.63;5093570;28;20024;-41
2022/05/12 07:37:20;;;;;;;7.47;2.55;;;;;;;20.33;51.76;101792.44;5093845;28;20596;-40
2022/05/12 07:39:45;;;;;;;7.43;2.70;;;;;;;20.79;48.13;101796.91;5093351;28;20103;-40
2022/05/12 07:42:10;;;;;;;13.95;2.78;;;;;;;20.56;48.96;101802.97;5094320;28;20036;-39
2022/05/12 07:44:35;;;;;;;10.10;2.60;;;;;;;20.17;47.45;101802.59;5092101;28;20062;-41
2022/05/12 07:47:05;;;;;;;11.18;2.42;;;;;;;20.15;50.83;101801.22;5093449;28;20463;-39
2022/05/12 07:49:35;;;;;;;10.27;2.55;;;;;;;20.60;48.66;101804.13;5093606;28;20165;-40
2022/05/12 07:52:01;;;;;;;9.38;2.47;;;;;;;20.17;48.89;101809.63;5094100;28;20324;-40
2022/05/12 07:54:27;;;;;;;7.75;2.40;;;;;;;19.94;49.35;101795.47;5093236;28;20432;-40
2022/05/12 07:56:53;;;;;;;6.35;2.15;;;;;;;20.15;50.27;101809.88;5091722;28;20019;-40
2022/05/12 07:59:18;;;;;;;10.60;2.60;;;;;;;20.53;48.04;101810.53;5092699;28;20024;-39
2022/05/12 08:01:44;;;;;;;13.00;2.50;;;;;;;19.74;48.10;101806.25;5093640;28;20099;-41
2022/05/12 08:04:09;;;;;;;13.55;2.15;;;;;;;20.24;49.46;101802.47;5096743;28;20103;-43
2022/05/12 08:06:35;;;;;;;6.53;2.30;;;;;;;20.70;48.47;101814.84;5097528;28;20534;-43
2022/05/12 08:09:01;;;;;;;8.43;2.63;;;;;;;20.40;48.01;101806.25;5097541;28;20020;-41
2022/05/12 08:11:27;;;;;;;10.63;2.20;;;;;;;20.18;47.49;101809.44;5097902;28;20458;-41
2022/05/12 08:13:53;;;;;;;6.22;2.15;;;;;;;20.74;45.71;101807.31;5097274;28;20104;-40
2022/05/12 08:16:21;;;;;;;7.32;2.17;;;;;;;21.22;47.19;101816.72;5097425;28;20055;-42
2022/05/12 08:18:49;;;;;;;11.13;2.53;;;;;;;21.04;44.40;101812.41;5098035;28;20077;-40
2022/05/12 08:21:16;;;;;;;7.82;2.45;;;;;;;21.21;43.81;101814.34;5097078;28;20024;-39
2022/05/12 08:23:41;;;;;;;8.05;1.90;;;;;;;21.05;44.82;101810.59;5096823;28;20036;-40
2022/05/12 08:26:07;;;;;;;8.70;2.72;;;;;;;20.76;46.65;101817.59;5096902;28;20055;-40
2022/05/12 08:28:32;;;;;;;7.53;2.20;;;;;;;21.16;45.30;101818.44;5096899;28;20040;-39
2022/05/12 08:30:57;;;;;;;7.55;2.13;;;;;;;20.94;44.47;101820.06;5096946;28;20020;-39
2022/05/12 08:33:23;;;;;;;6.95;2.10;;;;;;;21.11;44.09;101813.06;5097186;28;20035;-40
2022/05/12 08:35:50;;;;;;;5.57;1.80;;;;;;;20.85;44.57;101829.34;5097189;28;20106;-40
2022/05/12 08:38:17;;;;;;;5.93;2.03;;;;;;;21.53;43.29;101826.03;5096532;28;20060;-40
2022/05/12 08:41:37;;;;;;;7.32;2.13;;;;;;;21.45;43.84;101829.03;5096617;28;20032;-40
2022/05/12 08:44:12;;;;;;;8.15;2.00;;;;;;;20.84;43.61;101822.50;5094198;28;20101;-40
2022/05/12 08:46:44;;;;;;;7.55;1.90;;;;;;;20.47;44.72;101825.31;5095281;28;20020;-41
2022/05/12 08:49:20;;;;;;;6.45;1.80;;;;;;;21.08;43.43;101833.78;5096633;28;20020;-43
2022/05/12 08:51:49;;;;;;;5.32;1.73;;;;;;;20.81;42.99;101836.09;5096842;28;20413;-41
2022/05/12 08:54:19;;;;;;;4.82;1.60;;;;;;;21.32;42.75;101845.03;5095842;28;20134;-41
2022/05/12 08:56:46;;;;;;;5.93;2.17;;;;;;;20.85;43.02;101837.22;5097110;28;20367;-41
2022/05/12 08:59:12;;;;;;;7.03;1.83;;;;;;;21.42;42.45;101842.63;5094486;28;20020;-41
2022/05/12 09:01:37;;;;;;;7.03;1.98;;;;;;;21.50;43.12;101846.75;5096371;28;20024;-42
2022/05/12 09:04:39;;;;;;;9.03;2.17;;;;;;;21.52;43.88;101853.38;5096466;28;20028;-43
2022/05/12 09:07:22;;;;;;;5.03;1.90;;;;;;;21.45;42.26;101857.94;5096570;28;20265;-42
2022/05/12 09:10:03;;;;;;;4.15;1.77;;;;;;;21.83;41.75;101859.16;5096397;28;20085;-42
2022/05/12 09:12:40;;;;;;;8.20;2.00;;;;;;;22.22;40.68;101848.81;5096329;28;20475;-42
2022/05/12 09:15:19;;;;;;;6.70;1.70;;;;;;;21.16;43.34;101854.44;5094674;28;20442;-42
2022/05/12 09:17:52;;;;;;;5.68;1.90;;;;;;;21.34;41.54;101846.41;5096609;28;20073;-41
2022/05/12 09:20:18;;;;;;;4.93;1.77;;;;;;;21.02;44.15;101853.09;5096033;28;20036;-41
2022/05/12 09:22:44;;;;;;;6.63;1.55;;;;;;;21.73;41.35;101854.53;5096252;28;20085;-41
2022/05/12 09:25:26;;;;;;;6.75;1.70;;;;;;;20.61;43.13;101847.75;5096342;28;20067;-42
2022/05/12 09:27:52;;;;;;;;;;;;;;;20.47;41.22;101856.84;5096555;28;20459;-43
2022/05/12 09:30:31;;;;;;;4.05;1.50;;;;;;;21.57;40.90;101850.81;5094203;28;19940;-41
2022/05/12 09:32:58;;;;;;;4.15;1.50;;;;;;;21.30;41.26;101855.78;5095318;28;20026;-42
2022/05/12 09:35:26;;;;;;;9.07;1.80;;;;;;;22.15;39.22;101840.25;5095053;28;20462;-42
2022/05/12 09:37:53;;;;;;;5.65;1.13;;;;;;;21.22;38.98;101848.25;5095519;28;20066;-43
2022/05/12 09:40:31;;;;;;;5.45;1.70;;;;;;;20.60;39.26;101843.53;5096133;28;20077;-42
2022/05/12 09:43:00;;;;;;;10.18;2.05;;;;;;;21.59;39.64;101851.38;5095864;28;20050;-43
2022/05/12 09:45:32;;;;;;;7.18;2.03;;;;;;;21.65;41.65;101846.22;5095705;28;20031;-43
2022/05/12 09:48:09;;;;;;;6.47;1.92;;;;;;;22.56;37.43;101840.88;5095311;28;20058;-42
2022/05/12 09:50:35;;;;;;;6.18;1.30;;;;;;;21.81;37.31;101834.94;5094644;28;20028;-42
2022/05/12 09:53:03;;;;;;;5.78;1.40;;;;;;;22.35;36.21;101837.16;5095401;28;20024;-44
2022/05/12 09:55:31;;;;;;;8.88;1.75;;;;;;;21.06;38.66;101847.16;5095458;28;20077;-41
2022/05/12 09:58:00;;;;;;;8.40;1.80;;;;;;;21.91;38.61;101839.59;5095131;28;20027;-41
2022/05/12 10:00:34;;;;;;;5.93;1.50;;;;;;;22.12;35.71;101845.97;5096213;28;20027;-42
2022/05/12 10:09:05;;;;;;;7.88;1.30;;;;;;;22.82;35.61;101858.69;5095045;28;20501;-41
2022/05/12 10:11:38;;;;;;;3.97;1.30;;;;;;;22.19;36.01;101850.09;5094547;28;20027;-42
2022/05/12 10:14:05;;;;;;;4.22;1.38;;;;;;;22.67;35.28;101845.28;5093576;28;20062;-42
2022/05/12 10:16:33;;;;;;;5.95;1.60;;;;;;;22.46;34.75;101844.97;5094770;28;20028;-41
2022/05/12 10:19:05;;;;;;;10.30;1.55;;;;;;;22.79;34.58;101850.44;5095302;28;20438;-42
2022/05/12 10:21:43;;;;;;;;;;;;;;;23.18;34.17;101851.25;5095419;28;20483;-42
2022/05/12 10:24:31;;;;;;;6.18;1.27;;;;;;;23.10;34.80;101851.66;5094768;28;19908;-43
2022/05/12 10:27:19;;;;;;;6.47;1.98;;;;;;;23.42;33.61;101855.25;5093766;28;20135;-43
2022/05/12 10:30:02;;;;;;;4.50;1.60;;;;;;;22.37;36.51;101856.97;5082492;28;20047;-42
2022/05/12 10:32:47;;;;;;;6.45;1.80;;;;;;;22.14;35.63;101852.59;5094323;28;20110;-42
2022/05/12 10:35:37;;;;;;;8.32;1.52;;;;;;;22.61;35.41;101856.78;5094594;28;20385;-42
2022/05/12 10:38:36;;;;;;;4.85;1.70;;;;;;;22.91;36.14;101851.94;5094477;28;20100;-42
2022/05/12 10:41:25;;;;;;;5.20;1.60;;;;;;;21.66;35.72;101855.69;5093745;28;20103;-43
2022/05/12 10:44:09;;;;;;;6.20;1.92;;;;;;;21.11;36.46;101857.75;5094073;28;20035;-42
2022/05/12 10:46:46;;;;;;;6.82;1.92;;;;;;;21.92;37.99;101855.13;5094416;28;20023;-49
2022/05/12 10:49:41;;;;;;;6.75;1.60;;;;;;;22.55;35.08;101845.38;5094315;28;20032;-46
2022/05/12 10:52:33;;;;;;;4.03;1.60;;;;;;;22.67;32.47;101840.81;5094551;28;20035;-42
2022/05/12 10:55:22;;;;;;;6.53;1.70;;;;;;;22.56;33.49;101833.81;5094070;28;20028;-41
2022/05/12 10:58:19;;;;;;;8.65;1.75;;;;;;;22.96;34.42;101835.44;5094017;28;20024;-42
2022/05/12 11:01:10;;;;;;;4.93;1.65;;;;;;;23.02;36.18;101820.47;5093881;28;20032;-43
2022/05/12 11:03:54;;;;;;;5.60;1.38;;;;;;;21.51;34.70;101841.22;5094067;28;20073;-42
2022/05/12 11:06:24;;;;;;;4.53;1.50;;;;;;;22.19;34.82;101844.03;5094786;28;20020;-41
2022/05/12 11:08:55;;;;;;;5.07;1.50;;;;;;;22.61;34.71;101838.34;5093904;28;20027;-42
2022/05/12 11:11:40;;;;;;;6.23;1.40;;;;;;;21.30;35.54;101840.00;5093079;28;20522;-45
2022/05/12 11:14:15;;;;;;;5.10;1.55;;;;;;;22.53;34.00;101837.72;5094373;28;20602;-43
2022/05/12 11:17:00;;;;;;;5.97;1.40;;;;;;;23.01;32.91;101830.22;5093847;28;20020;-40
2022/05/12 11:19:26;;;;;;;5.50;1.40;;;;;;;23.36;32.21;101826.41;5093971;28;20024;-42
2022/05/12 11:22:13;;;;;;;4.10;1.67;;;;;;;22.45;35.94;101824.97;5093617;28;20028;-41
2022/05/12 11:24:54;;;;;;;6.68;2.00;;;;;;;23.12;34.45;101816.13;5093837;28;20028;-42
2022/05/12 11:27:44;;;;;;;6.70;2.15;;;;;;;23.99;32.60;101829.41;5093617;28;20076;-42
2022/05/12 11:30:24;;;;;;;4.40;1.52;;;;;;;24.46;31.61;101824.25;5093890;28;20038;-43
2022/05/12 11:33:07;;;;;;;4.35;1.80;;;;;;;23.66;32.03;101833.84;5093684;28;20458;-41
2022/05/12 11:35:40;;;;;;;7.10;1.80;;;;;;;22.86;33.25;101827.34;5093826;28;20090;-42
2022/05/12 11:38:07;;;;;;;;;;;;;;;22.42;34.16;101829.91;5093893;28;20051;-42
2022/05/12 11:40:40;;;;;;;8.38;1.75;;;;;;;22.13;33.83;101814.16;5094341;28;20412;-43
2022/05/12 11:46:31;;;;;;;7.03;1.90;;;;;;;22.89;32.79;101830.31;5093301;28;20054;-41
2022/05/12 11:49:03;;;;;;;5.47;1.50;;;;;;;23.35;32.22;101827.44;5093930;28;20016;-42
2022/05/12 11:51:55;;;;;;;10.33;1.50;;;;;;;22.85;31.59;101831.84;5093980;28;20042;-43
2022/05/12 11:54:33;;;;;;;6.60;1.60;;;;;;;23.46;30.59;101823.88;5045785;28;20082;-42